Time;durP1;ratioP1;P1;durP2;ratioP2;P2;SDS_P1;SDS_P2;PMS_P1;PMS_P2;Temp;Humidity;BMP_temperature;BMP_pressure;BME280_temperature;BME280_humidity;BME280_pressure;Samples;Min_cycle;Max_cycle;Signal;HPM_P1;HPM_P2
2022/05/05 00:00:13;;;;;;;0.00;0.00;;;;;;;12.62;68.83;99269.75;5054386;28;20025;-77
2022/05/05 00:02:38;;;;;;;0.00;0.00;;;;;;;12.60;68.54;99274.63;5052946;28;20029;-77
2022/05/05 00:05:05;;;;;;;0.00;0.00;;;;;;;12.56;68.59;99282.44;5053768;28;20033;-76
2022/05/05 00:07:30;;;;;;;0.10;0.10;;;;;;;12.55;69.26;99270.13;5054100;28;20028;-76
2022/05/05 00:09:56;;;;;;;0.08;0.08;;;;;;;12.53;68.79;99271.47;5049406;28;20029;-77
2022/05/05 00:15:07;;;;;;;0.00;0.00;;;;;;;12.52;69.05;99272.56;5053425;28;20095;-74
2022/05/05 00:17:34;;;;;;;0.00;0.00;;;;;;;12.50;69.08;99278.22;5053627;28;20025;-78
2022/05/05 00:20:00;;;;;;;0.00;0.00;;;;;;;12.43;69.23;99277.75;5052701;28;20095;-76
2022/05/05 00:22:25;;;;;;;0.05;0.05;;;;;;;12.36;69.57;99280.72;5053901;28;20496;-77
2022/05/05 00:24:51;;;;;;;0.00;0.00;;;;;;;12.35;69.26;99276.44;5052961;28;20056;-75
2022/05/05 00:27:16;;;;;;;0.00;0.00;;;;;;;12.30;69.11;99277.31;5054399;28;20060;-75
2022/05/05 00:29:41;;;;;;;0.00;0.00;;;;;;;12.27;69.39;99277.88;5053206;28;20044;-75
2022/05/05 00:32:07;;;;;;;0.00;0.00;;;;;;;12.28;69.42;99287.50;5052844;28;20032;-75
2022/05/05 00:34:33;;;;;;;0.03;0.03;;;;;;;12.23;70.01;99284.88;5051936;28;20086;-78
2022/05/05 00:36:58;;;;;;;0.00;0.00;;;;;;;12.15;69.95;99290.84;5053760;28;20027;-78
2022/05/05 00:39:24;;;;;;;0.10;0.10;;;;;;;12.12;69.70;99288.72;5053319;28;20477;-77
2022/05/05 00:41:50;;;;;;;0.00;0.00;;;;;;;12.09;69.75;99287.38;5043656;28;20061;-76
2022/05/05 00:44:16;;;;;;;0.00;0.00;;;;;;;12.09;69.82;99292.75;5034315;28;20033;-76
2022/05/05 00:46:49;;;;;;;0.00;0.00;;;;;;;12.06;70.25;99284.47;5053161;28;20468;-75
2022/05/05 00:49:15;;;;;;;0.00;0.00;;;;;;;12.06;70.00;99287.16;5053102;28;20029;-77
2022/05/05 00:51:41;;;;;;;0.00;0.00;;;;;;;12.00;70.07;99289.88;5052915;28;20039;-76
2022/05/05 00:54:07;;;;;;;0.00;0.00;;;;;;;11.97;70.13;99295.81;5053118;28;20029;-77
2022/05/05 00:56:34;;;;;;;0.10;0.10;;;;;;;11.95;70.40;99286.38;5053535;28;20033;-78
2022/05/05 00:59:01;;;;;;;0.00;0.00;;;;;;;11.93;70.71;99285.88;5052736;28;20021;-77
2022/05/05 01:01:26;;;;;;;0.00;0.00;;;;;;;11.92;70.08;99285.06;5045864;28;20135;-77
2022/05/05 01:03:53;;;;;;;0.10;0.10;;;;;;;11.89;70.30;99288.31;5032087;28;20122;-77
2022/05/05 01:06:19;;;;;;;0.00;0.00;;;;;;;11.90;69.63;99289.94;5042396;28;20039;-76
2022/05/05 01:08:46;;;;;;;0.00;0.00;;;;;;;11.89;70.00;99295.53;5050123;28;20102;-77
2022/05/05 01:11:12;;;;;;;0.00;0.00;;;;;;;11.87;69.77;99290.47;5053159;28;20025;-76
2022/05/05 01:13:40;;;;;;;0.00;0.00;;;;;;;11.82;69.55;99290.50;5047449;28;20452;-77
2022/05/05 01:16:07;;;;;;;0.00;0.00;;;;;;;11.79;69.36;99275.78;5043406;28;20170;-76
2022/05/05 01:18:33;;;;;;;0.00;0.00;;;;;;;11.77;69.24;99285.97;5052189;28;20017;-76
2022/05/05 01:20:58;;;;;;;0.00;0.00;;;;;;;11.72;68.76;99287.88;5052673;28;20033;-76
2022/05/05 01:23:24;;;;;;;0.00;0.00;;;;;;;11.70;69.09;99298.88;5052138;28;20400;-77
2022/05/05 01:28:39;;;;;;;0.00;0.00;;;;;;;11.60;69.15;99298.94;5051937;28;20035;-77
2022/05/05 01:31:05;;;;;;;0.00;0.00;;;;;;;11.56;68.86;99301.38;5051432;28;20108;-76
2022/05/05 01:33:31;;;;;;;0.00;0.00;;;;;;;11.53;68.72;99302.72;5051788;28;20171;-77
2022/05/05 01:35:58;;;;;;;0.00;0.00;;;;;;;11.45;69.07;99302.47;5052794;28;20029;-77
2022/05/05 01:38:39;;;;;;;0.00;0.00;;;;;;;11.40;68.98;99302.50;5051840;28;20471;-77
2022/05/05 01:41:06;;;;;;;0.00;0.00;;;;;;;11.42;69.15;99303.06;5052620;28;20057;-78
2022/05/05 01:43:31;;;;;;;0.00;0.00;;;;;;;11.38;68.90;99294.75;5050724;28;20445;-77
2022/05/05 01:45:57;;;;;;;0.00;0.00;;;;;;;11.33;68.94;99295.59;5045437;28;20060;-77
2022/05/05 01:48:22;;;;;;;0.00;0.00;;;;;;;11.28;69.03;99294.78;5066433;28;20033;-76
2022/05/05 01:50:48;;;;;;;0.03;0.03;;;;;;;11.28;69.15;99300.16;5051820;28;20058;-76
2022/05/05 01:53:14;;;;;;;0.00;0.00;;;;;;;11.28;68.71;99300.16;5052618;28;20024;-76
2022/05/05 01:55:39;;;;;;;0.00;0.00;;;;;;;11.28;69.34;99306.31;5052193;28;20159;-77
2022/05/05 01:58:05;;;;;;;0.00;0.00;;;;;;;11.24;69.25;99309.81;5051082;28;20078;-76
2022/05/05 02:00:31;;;;;;;0.00;0.00;;;;;;;11.20;69.39;99309.56;5050393;28;20036;-76
2022/05/05 02:02:57;;;;;;;0.00;0.00;;;;;;;11.16;69.45;99305.84;5052130;28;20032;-78
2022/05/05 02:05:22;;;;;;;0.00;0.00;;;;;;;11.11;69.56;99298.63;5050441;28;20021;-76
2022/05/05 02:07:48;;;;;;;0.00;0.00;;;;;;;11.14;69.77;99316.00;5051509;28;20033;-78
2022/05/05 02:10:15;;;;;;;0.00;0.00;;;;;;;11.09;70.13;99314.13;5051277;28;20055;-78
2022/05/05 02:12:42;;;;;;;0.00;0.00;;;;;;;11.05;69.75;99307.75;5049504;28;20037;-79
2022/05/05 02:15:09;;;;;;;0.00;0.00;;;;;;;11.02;69.69;99305.59;5049924;28;20111;-78
2022/05/05 02:17:37;;;;;;;0.00;0.00;;;;;;;10.99;69.92;99311.50;5051513;28;20056;-76
2022/05/05 02:20:06;;;;;;;0.00;0.00;;;;;;;10.96;69.55;99304.00;5050876;28;20028;-76
2022/05/05 02:22:31;;;;;;;0.00;0.00;;;;;;;10.99;69.54;99308.81;5051095;28;20119;-76
2022/05/05 02:24:57;;;;;;;0.00;0.00;;;;;;;10.99;70.10;99314.97;5051512;28;20484;-76
2022/05/05 02:27:23;;;;;;;0.00;0.00;;;;;;;10.98;70.13;99315.25;5050618;28;20087;-76
2022/05/05 02:29:51;;;;;;;0.00;0.00;;;;;;;10.94;69.93;99315.00;5051626;28;20029;-76
2022/05/05 02:32:18;;;;;;;0.00;0.00;;;;;;;10.92;70.26;99319.81;5050180;28;20095;-76
2022/05/05 02:34:44;;;;;;;0.00;0.00;;;;;;;10.91;70.06;99309.38;5051404;28;20033;-76
2022/05/05 02:39:54;;;;;;;0.00;0.00;;;;;;;10.86;69.99;99313.69;5050630;28;20060;-76
2022/05/05 02:42:22;;;;;;;0.00;0.00;;;;;;;10.85;70.26;99316.59;5041957;28;20028;-76
2022/05/05 02:44:48;;;;;;;;;;;;;;;10.83;70.35;99316.88;5050545;28;20401;-76
2022/05/05 02:47:14;;;;;;;0.00;0.00;;;;;;;10.81;70.46;99320.91;5050909;28;20007;-76
2022/05/05 02:49:39;;;;;;;0.00;0.00;;;;;;;10.83;70.58;99316.09;5050251;28;20099;-78
2022/05/05 02:52:06;;;;;;;0.00;0.00;;;;;;;10.78;70.68;99318.75;5050700;28;20116;-78
2022/05/05 02:54:50;;;;;;;0.00;0.00;;;;;;;10.80;70.99;99316.63;5031217;28;20047;-78
2022/05/05 02:57:22;;;;;;;0.00;0.00;;;;;;;10.81;71.35;99316.34;5060186;28;20029;-78
2022/05/05 02:59:48;;;;;;;0.00;0.00;;;;;;;10.85;71.20;99322.78;5030017;28;20033;-78
2022/05/05 03:02:14;;;;;;;0.00;0.00;;;;;;;10.86;71.48;99329.72;5037237;28;20537;-78
2022/05/05 03:04:40;;;;;;;0.00;0.00;;;;;;;10.86;71.40;99323.56;5049536;28;20041;-78
2022/05/05 03:07:06;;;;;;;0.00;0.00;;;;;;;10.88;71.71;99329.44;5066541;28;20031;-76
2022/05/05 03:09:31;;;;;;;0.00;0.00;;;;;;;10.83;70.90;99326.78;5049662;28;20071;-77
2022/05/05 03:11:57;;;;;;;0.00;0.00;;;;;;;10.84;71.23;99331.88;5050401;28;20058;-77
2022/05/05 03:14:23;;;;;;;0.00;0.00;;;;;;;10.81;71.47;99329.72;5050837;28;20065;-76
2022/05/05 03:16:48;;;;;;;0.00;0.00;;;;;;;10.85;71.91;99324.63;5044615;28;20420;-76
2022/05/05 03:19:14;;;;;;;0.00;0.00;;;;;;;10.87;71.36;99333.19;5047875;28;20025;-74
2022/05/05 03:21:39;;;;;;;0.00;0.00;;;;;;;10.95;71.33;99331.84;5049950;28;20039;-75
2022/05/05 03:24:05;;;;;;;0.00;0.00;;;;;;;10.97;72.04;99335.06;5050636;28;20076;-76
2022/05/05 03:26:31;;;;;;;0.00;0.00;;;;;;;11.08;72.59;99344.66;5050251;28;20055;-79
2022/05/05 03:28:57;;;;;;;0.00;0.00;;;;;;;11.20;71.96;99342.50;5049416;28;20549;-78
2022/05/05 03:31:22;;;;;;;0.00;0.00;;;;;;;11.39;71.47;99347.25;5037931;28;20481;-79
2022/05/05 03:33:48;;;;;;;0.00;0.00;;;;;;;11.60;71.17;99350.63;5044193;28;20500;-75
2022/05/05 03:36:13;;;;;;;0.00;0.00;;;;;;;11.88;70.91;99352.91;5034234;28;20504;-76
2022/05/05 03:38:39;;;;;;;0.00;0.00;;;;;;;12.13;69.86;99360.00;5061742;28;20033;-76
2022/05/05 03:41:05;;;;;;;0.00;0.00;;;;;;;12.44;69.78;99359.81;5049120;28;20075;-76
2022/05/05 03:43:31;;;;;;;0.00;0.00;;;;;;;12.71;68.31;99356.63;5050095;28;20543;-77
2022/05/05 03:45:57;;;;;;;0.00;0.00;;;;;;;12.94;67.42;99360.44;5049683;28;20072;-77
2022/05/05 03:48:22;;;;;;;0.00;0.00;;;;;;;13.08;66.18;99357.06;5049730;28;20053;-76
2022/05/05 03:50:48;;;;;;;0.00;0.00;;;;;;;13.32;65.37;99361.63;5048410;28;20044;-76
2022/05/05 03:53:13;;;;;;;0.00;0.00;;;;;;;13.53;64.65;99364.94;5050668;28;20502;-76
2022/05/05 03:55:39;;;;;;;0.00;0.00;;;;;;;13.74;63.95;99363.59;5049619;28;20028;-77
2022/05/05 03:58:04;;;;;;;0.00;0.00;;;;;;;14.05;63.64;99367.75;5046346;28;20112;-77
2022/05/05 04:00:30;;;;;;;0.00;0.00;;;;;;;14.42;62.68;99368.81;5049012;28;20094;-77
2022/05/05 04:05:39;;;;;;;0.10;0.10;;;;;;;15.20;60.48;99376.38;5049361;28;20044;-75
2022/05/05 04:08:05;;;;;;;0.00;0.00;;;;;;;15.60;59.32;99384.75;5050409;28;20029;-77
2022/05/05 04:10:32;;;;;;;0.10;0.10;;;;;;;16.01;58.50;99380.41;5048888;28;20043;-77
2022/05/05 04:12:57;;;;;;;0.00;0.00;;;;;;;16.51;56.70;99392.25;5045247;28;20061;-77
2022/05/05 04:15:23;;;;;;;0.10;0.10;;;;;;;16.91;55.08;99398.53;5031310;28;20074;-76
2022/05/05 04:17:49;;;;;;;0.17;0.15;;;;;;;17.12;54.19;99390.75;5049199;28;20021;-77
2022/05/05 04:20:15;;;;;;;0.10;0.10;;;;;;;17.29;54.31;99391.91;5048120;28;20032;-84
2022/05/05 04:22:41;;;;;;;0.00;0.00;;;;;;;17.61;54.70;99395.34;5033713;28;20384;-79
2022/05/05 04:25:08;;;;;;;0.10;0.10;;;;;;;17.99;53.91;99394.00;5061020;28;20051;-82
2022/05/05 04:27:34;;;;;;;0.10;0.10;;;;;;;18.32;51.80;99391.66;5047991;28;20411;-83
2022/05/05 04:30:01;;;;;;;0.00;0.00;;;;;;;18.63;50.86;99396.06;5048475;28;20055;-82
2022/05/05 04:32:27;;;;;;;0.10;0.10;;;;;;;18.92;49.98;99400.03;5051787;28;20029;-83
2022/05/05 04:34:54;;;;;;;0.00;0.00;;;;;;;19.11;49.09;99405.06;5051519;28;20041;-81
2022/05/05 04:37:20;;;;;;;0.10;0.10;;;;;;;19.23;49.01;99403.59;5051886;28;20033;-80
2022/05/05 04:39:45;;;;;;;0.00;0.00;;;;;;;19.24;48.39;99408.69;5051525;28;20060;-82
2022/05/05 04:42:11;;;;;;;0.45;0.45;;;;;;;19.24;48.41;99405.16;5051680;28;20036;-82
2022/05/05 04:44:37;;;;;;;0.00;0.00;;;;;;;19.19;48.46;99409.66;5053569;28;20032;-83
2022/05/05 04:47:02;;;;;;;0.10;0.10;;;;;;;19.10;48.59;99403.47;5051815;28;20040;-80
2022/05/05 04:49:28;;;;;;;0.15;0.15;;;;;;;19.07;49.06;99404.13;5051037;28;20037;-81
2022/05/05 04:51:54;;;;;;;0.10;0.10;;;;;;;19.00;49.42;99392.97;5052199;28;20454;-80
2022/05/05 04:54:19;;;;;;;0.00;0.00;;;;;;;18.90;49.53;99401.44;5052062;28;20082;-80
2022/05/05 04:56:45;;;;;;;0.05;0.05;;;;;;;18.94;49.92;99410.53;5051695;28;20029;-80
2022/05/05 04:59:10;;;;;;;0.00;0.00;;;;;;;19.15;50.04;99406.00;5053111;28;20029;-80
2022/05/05 05:01:36;;;;;;;0.00;0.00;;;;;;;19.29;49.57;99405.00;5053071;28;20078;-80
2022/05/05 05:04:06;;;;;;;0.10;0.10;;;;;;;19.48;49.28;99404.59;5068652;28;20082;-80
2022/05/05 05:06:31;;;;;;;0.00;0.00;;;;;;;19.75;48.73;99407.94;5051609;28;20367;-80
2022/05/05 05:08:57;;;;;;;0.10;0.10;;;;;;;19.99;48.33;99401.91;5051996;28;20247;-80
2022/05/05 05:11:23;;;;;;;0.10;0.10;;;;;;;20.30;47.99;99409.66;5051575;28;20123;-80
2022/05/05 05:13:49;;;;;;;0.10;0.10;;;;;;;20.72;47.38;99416.22;5051643;28;20051;-80
2022/05/05 05:16:14;;;;;;;0.00;0.00;;;;;;;21.10;47.25;99418.69;5051641;28;20032;-80
2022/05/05 05:18:40;;;;;;;0.00;0.00;;;;;;;21.56;46.50;99409.63;5053009;28;20020;-80
2022/05/05 05:21:05;;;;;;;0.10;0.10;;;;;;;21.97;45.43;99410.53;5051620;28;20030;-80
2022/05/05 05:23:30;;;;;;;0.00;0.00;;;;;;;22.43;44.69;99415.75;5052767;28;20027;-80
2022/05/05 05:25:56;;;;;;;0.00;0.00;;;;;;;22.86;43.84;99408.72;5052418;28;20068;-81
2022/05/05 05:28:21;;;;;;;0.00;0.00;;;;;;;23.31;43.41;99416.88;5051329;28;20025;-80
2022/05/05 05:30:47;;;;;;;0.00;0.00;;;;;;;23.74;42.32;99408.88;5067805;28;20033;-81
2022/05/05 05:33:13;;;;;;;0.00;0.00;;;;;;;24.10;41.67;99423.34;5051479;28;20033;-80
2022/05/05 05:35:39;;;;;;;0.00;0.00;;;;;;;24.45;40.61;99419.78;5050795;28;20029;-79
2022/05/05 05:38:04;;;;;;;0.00;0.00;;;;;;;24.75;40.33;99427.41;5052422;28;20032;-79
2022/05/05 05:40:30;;;;;;;0.00;0.00;;;;;;;25.05;39.55;99418.56;5067412;28;20053;-79
2022/05/05 05:42:55;;;;;;;0.00;0.00;;;;;;;25.31;39.31;99425.22;5051604;28;20032;-79
2022/05/05 05:45:21;;;;;;;0.00;0.00;;;;;;;25.56;38.57;99433.84;5052604;28;20385;-80
2022/05/05 05:47:46;;;;;;;0.00;0.00;;;;;;;25.77;38.35;99429.84;5052497;28;20106;-79
2022/05/05 05:50:12;;;;;;;0.00;0.00;;;;;;;25.99;37.79;99428.22;5051025;28;20032;-80
2022/05/05 05:52:37;;;;;;;0.00;0.00;;;;;;;26.18;37.02;99436.34;5050783;28;20025;-79
2022/05/05 05:55:03;;;;;;;0.10;0.10;;;;;;;25.82;36.21;99426.81;5050934;28;20095;-79
2022/05/05 05:57:28;;;;;;;0.00;0.00;;;;;;;25.35;36.59;99431.53;5050517;28;20397;-79
2022/05/05 05:59:54;;;;;;;0.35;0.35;;;;;;;24.97;37.40;99425.81;5052166;28;20087;-78
2022/05/05 06:05:06;;;;;;;0.00;0.00;;;;;;;24.12;37.36;99432.78;5051778;28;20043;-80
2022/05/05 06:07:31;;;;;;;;;;;;;;;23.78;38.00;99428.88;5052191;28;20206;-78
2022/05/05 06:09:56;;;;;;;0.00;0.00;;;;;;;23.38;38.85;99422.50;5052300;28;20447;-80
2022/05/05 06:12:22;;;;;;;0.00;0.00;;;;;;;23.21;40.05;99426.38;5050350;28;20028;-80
2022/05/05 06:14:47;;;;;;;0.13;0.13;;;;;;;23.12;40.84;99431.97;5050386;28;20021;-80
2022/05/05 06:17:13;;;;;;;0.10;0.10;;;;;;;23.33;40.42;99439.94;5050571;28;20036;-80
2022/05/05 06:19:38;;;;;;;0.00;0.00;;;;;;;23.61;39.53;99433.56;5050317;28;20029;-79
2022/05/05 06:22:04;;;;;;;0.10;0.10;;;;;;;23.89;38.92;99429.91;5050519;28;20041;-80
2022/05/05 06:24:29;;;;;;;0.00;0.00;;;;;;;24.12;38.02;99429.25;5050321;28;20253;-80
2022/05/05 06:26:55;;;;;;;0.00;0.00;;;;;;;24.34;38.09;99438.69;5050315;28;20021;-80
2022/05/05 06:29:20;;;;;;;0.00;0.00;;;;;;;24.40;37.45;99439.19;5050294;28;20094;-80
2022/05/05 06:31:45;;;;;;;0.00;0.00;;;;;;;24.68;37.11;99435.47;5049796;28;20119;-80
2022/05/05 06:34:11;;;;;;;0.22;0.22;;;;;;;24.71;36.96;99438.25;5051563;28;20029;-80
2022/05/05 06:36:36;;;;;;;0.00;0.00;;;;;;;24.77;36.98;99439.53;5050057;28;20033;-79
2022/05/05 06:39:02;;;;;;;0.00;0.00;;;;;;;24.84;37.01;99436.16;5051315;28;20025;-79
2022/05/05 06:41:28;;;;;;;0.00;0.00;;;;;;;24.92;36.85;99437.09;5042891;28;20053;-78
2022/05/05 06:43:54;;;;;;;0.00;0.00;;;;;;;24.98;36.30;99441.09;5029793;28;20026;-79
2022/05/05 06:46:20;;;;;;;0.00;0.00;;;;;;;24.91;36.25;99444.50;5029501;28;20492;-79
2022/05/05 06:48:46;;;;;;;0.00;0.00;;;;;;;24.86;35.55;99439.31;5046435;28;20044;-78
2022/05/05 06:51:11;;;;;;;0.10;0.10;;;;;;;24.78;36.42;99437.63;5030756;28;20040;-78
2022/05/05 06:53:37;;;;;;;0.15;0.15;;;;;;;24.59;37.03;99441.91;5029191;28;20040;-78
2022/05/05 06:56:03;;;;;;;0.00;0.00;;;;;;;24.49;37.35;99441.72;5029992;28;20031;-78
2022/05/05 06:58:28;;;;;;;0.00;0.00;;;;;;;24.34;37.68;99440.63;5029522;28;20030;-79
2022/05/05 07:03:39;;;;;;;0.10;0.10;;;;;;;24.12;39.05;99445.63;5030790;28;20125;-79
2022/05/05 07:06:05;;;;;;;0.10;0.10;;;;;;;23.86;38.85;99447.00;5030962;28;20528;-79
2022/05/05 07:10:52;;;;;;;0.10;0.10;;;;;;;23.78;39.36;99454.25;5029195;28;20079;-79
2022/05/05 07:11:19;;;;;;;0.00;0.00;;;;;;;23.67;39.54;99442.28;5030602;28;20034;-79
2022/05/05 07:13:45;;;;;;;0.00;0.00;;;;;;;23.64;38.88;99449.25;5030524;28;20530;-79
2022/05/05 07:16:11;;;;;;;0.45;0.45;;;;;;;23.51;39.10;99453.22;5046325;28;20041;-79
2022/05/05 07:18:37;;;;;;;0.10;0.10;;;;;;;23.37;39.92;99452.88;5029557;28;20164;-79
2022/05/05 07:21:03;;;;;;;0.00;0.00;;;;;;;23.21;39.91;99444.69;5031225;28;20060;-79
2022/05/05 07:23:28;;;;;;;0.00;0.00;;;;;;;23.21;40.65;99453.66;5029649;28;20120;-79
2022/05/05 07:25:54;;;;;;;0.28;0.28;;;;;;;23.16;40.22;99456.63;5029296;28;20542;-80
2022/05/05 07:28:19;;;;;;;0.60;0.60;;;;;;;23.14;40.49;99456.97;5029668;28;20439;-80
2022/05/05 07:30:45;;;;;;;0.03;0.03;;;;;;;23.23;39.94;99458.75;5029327;28;20398;-80
2022/05/05 07:33:10;;;;;;;0.10;0.10;;;;;;;23.15;39.86;99444.91;5029346;28;20504;-79
2022/05/05 07:35:39;;;;;;;0.10;0.10;;;;;;;23.10;40.17;99458.81;5030261;28;20390;-79
2022/05/05 07:38:04;;;;;;;;;;;;;;;22.88;40.52;99452.00;5030976;28;20444;-79
2022/05/05 07:40:30;;;;;;;0.00;0.00;;;;;;;22.88;40.96;99454.72;5045902;28;19928;-80
2022/05/05 07:42:55;;;;;;;0.00;0.00;;;;;;;22.73;40.84;99469.91;5049560;28;20106;-80
2022/05/05 07:45:21;;;;;;;0.00;0.00;;;;;;;22.71;41.18;99462.06;5049072;28;20083;-80
2022/05/05 07:47:47;;;;;;;0.00;0.00;;;;;;;22.70;41.39;99456.97;5049131;28;20021;-80
2022/05/05 07:50:12;;;;;;;0.22;0.22;;;;;;;22.72;41.51;99460.16;5049275;28;20036;-80
2022/05/05 07:52:38;;;;;;;0.00;0.00;;;;;;;22.59;41.63;99464.84;5049103;28;20021;-80
2022/05/05 07:55:04;;;;;;;0.00;0.00;;;;;;;22.66;41.84;99462.31;5050270;28;20064;-79
2022/05/05 07:57:30;;;;;;;1.45;0.43;;;;;;;22.74;41.73;99459.78;5050264;28;20028;-80
2022/05/05 07:59:56;;;;;;;0.10;0.10;;;;;;;22.88;41.38;99465.63;5049059;28;20078;-79
2022/05/05 08:02:22;;;;;;;0.10;0.10;;;;;;;22.91;41.53;99458.69;5049124;28;20476;-80
2022/05/05 08:04:47;;;;;;;0.10;0.10;;;;;;;23.09;41.75;99457.22;5048762;28;20040;-80
2022/05/05 08:07:13;;;;;;;0.00;0.00;;;;;;;23.28;41.41;99464.75;5052564;28;20025;-80
2022/05/05 08:09:39;;;;;;;0.00;0.00;;;;;;;23.32;40.99;99470.31;5052665;28;20036;-79
2022/05/05 08:12:06;;;;;;;0.05;0.05;;;;;;;23.44;40.24;99461.25;5052757;28;20086;-79
2022/05/05 08:14:32;;;;;;;0.10;0.10;;;;;;;23.43;40.29;99465.91;5052832;28;20033;-80
2022/05/05 08:16:58;;;;;;;0.20;0.20;;;;;;;23.42;40.22;99466.25;5053963;28;20032;-79
2022/05/05 08:19:23;;;;;;;0.00;0.00;;;;;;;23.28;40.54;99469.44;5054208;28;20033;-80
2022/05/05 08:21:50;;;;;;;0.10;0.10;;;;;;;23.17;40.67;99474.63;5052574;28;20038;-80
2022/05/05 08:29:44;;;;;;;0.00;0.00;;;;;;;22.86;42.50;99471.44;5053737;28;20135;-81
2022/05/05 08:32:09;;;;;;;0.00;0.00;;;;;;;22.77;42.25;99473.53;5053877;28;20056;-80
2022/05/05 08:34:35;;;;;;;0.20;0.20;;;;;;;22.57;42.61;99471.78;5052272;28;20120;-80
2022/05/05 08:37:01;;;;;;;0.50;0.50;;;;;;;22.29;43.12;99476.06;5052417;28;20453;-80
2022/05/05 08:39:26;;;;;;;0.35;0.35;;;;;;;22.14;45.72;99474.03;5052207;28;20464;-81
2022/05/05 08:41:55;;;;;;;0.75;0.75;;;;;;;21.90;44.83;99481.09;5075786;28;20055;-80
2022/05/05 08:44:21;;;;;;;0.13;0.13;;;;;;;21.82;46.14;99482.00;5053686;28;20488;-82
2022/05/05 08:46:48;;;;;;;5.57;2.83;;;;;;;21.88;47.11;99472.47;5053361;28;20061;-82
2022/05/05 08:49:16;;;;;;;1.58;1.48;;;;;;;21.77;46.09;99484.97;5051993;28;20033;-81
2022/05/05 08:51:44;;;;;;;0.08;0.08;;;;;;;21.71;45.53;99484.38;5051871;28;20487;-82
2022/05/05 08:54:16;;;;;;;0.10;0.10;;;;;;;21.61;44.36;99482.13;5051998;28;20522;-82
2022/05/05 08:56:42;;;;;;;0.22;0.22;;;;;;;21.53;44.99;99481.88;5052024;28;20554;-82
2022/05/05 08:59:09;;;;;;;0.45;0.45;;;;;;;21.55;45.99;99481.53;5051969;28;20029;-81
2022/05/05 09:01:39;;;;;;;0.10;0.10;;;;;;;21.47;45.18;99480.50;5051955;28;20150;-81
2022/05/05 09:04:08;;;;;;;0.10;0.10;;;;;;;21.40;45.00;99481.06;5053249;28;20025;-81
2022/05/05 09:06:48;;;;;;;0.10;0.10;;;;;;;21.38;46.77;99479.81;5053293;28;20029;-80
2022/05/05 09:09:36;;;;;;;0.20;0.20;;;;;;;21.47;42.01;99472.34;5051707;28;20021;-82
2022/05/05 09:12:12;;;;;;;0.00;0.00;;;;;;;21.46;43.26;99478.09;5051728;28;20029;-81
2022/05/05 09:14:49;;;;;;;0.20;0.20;;;;;;;21.46;44.72;99467.22;5051140;28;20033;-81
2022/05/05 09:17:18;;;;;;;0.22;0.22;;;;;;;21.67;45.96;99467.94;5051762;28;20032;-81
2022/05/05 09:19:46;;;;;;;0.17;0.17;;;;;;;21.71;43.78;99479.72;5051287;28;20060;-82
2022/05/05 09:22:12;;;;;;;0.20;0.20;;;;;;;21.84;44.25;99471.59;5051647;28;20087;-82
2022/05/05 09:24:43;;;;;;;0.08;0.08;;;;;;;21.93;43.97;99466.00;5051375;28;20040;-82
2022/05/05 09:27:18;;;;;;;0.17;0.17;;;;;;;21.96;39.74;99470.75;5051060;28;20021;-81
2022/05/05 09:30:08;;;;;;;0.57;0.52;;;;;;;21.84;38.86;99466.91;5067852;28;20128;-81
2022/05/05 09:32:36;;;;;;;0.10;0.10;;;;;;;21.72;38.76;99473.16;5051274;28;20025;-81
2022/05/05 09:35:13;;;;;;;0.00;0.00;;;;;;;21.64;39.01;99476.81;5052404;28;20025;-81
2022/05/05 09:37:54;;;;;;;0.10;0.10;;;;;;;21.63;39.13;99477.13;5052564;28;20033;-82
2022/05/05 09:40:20;;;;;;;0.08;0.08;;;;;;;21.69;39.37;99476.56;5051147;28;20132;-80
2022/05/05 09:42:51;;;;;;;0.35;0.35;;;;;;;21.70;38.93;99466.47;5033436;28;20017;-82
2022/05/05 09:45:21;;;;;;;0.00;0.00;;;;;;;21.78;38.43;99462.84;5031370;28;20074;-82
2022/05/05 09:47:52;;;;;;;0.25;0.25;;;;;;;21.71;36.20;99471.56;5031112;28;20026;-82
2022/05/05 09:50:20;;;;;;;0.32;0.32;;;;;;;21.78;36.96;99473.72;5031176;28;20029;-82
2022/05/05 09:58:19;;;;;;;0.43;0.43;;;;;;;21.60;38.45;99465.00;5032215;28;20163;-81
2022/05/05 10:00:58;;;;;;;0.05;0.05;;;;;;;21.73;37.80;99461.13;5030709;28;20521;-81
2022/05/05 10:04:00;;;;;;;0.00;0.00;;;;;;;21.87;38.36;99462.72;5031024;28;20547;-81
2022/05/05 10:06:40;;;;;;;0.00;0.00;;;;;;;21.99;38.23;99468.16;5031047;28;20473;-82
2022/05/05 10:09:10;;;;;;;0.20;0.20;;;;;;;21.95;38.54;99458.28;5032476;28;20437;-81
2022/05/05 10:11:36;;;;;;;0.00;0.00;;;;;;;21.98;38.75;99454.88;5030794;28;20044;-81
2022/05/05 10:14:04;;;;;;;0.20;0.20;;;;;;;21.99;37.88;99467.38;5031870;28;20025;-81
2022/05/05 10:16:31;;;;;;;0.10;0.10;;;;;;;21.90;39.36;99468.28;5030574;28;20109;-81
2022/05/05 10:18:57;;;;;;;0.15;0.15;;;;;;;21.96;39.56;99457.16;5030216;28;20037;-82
2022/05/05 10:21:54;;;;;;;1.23;0.60;;;;;;;21.98;39.13;99463.06;5030376;28;20040;-80
2022/05/05 10:24:30;;;;;;;0.27;0.27;;;;;;;22.16;39.59;99450.75;5030108;28;20496;-80
2022/05/05 10:27:01;;;;;;;0.10;0.10;;;;;;;22.15;38.59;99451.88;5029865;28;20025;-81
2022/05/05 10:29:35;;;;;;;0.20;0.13;;;;;;;22.13;39.65;99454.19;5029798;28;20416;-80
2022/05/05 10:32:24;;;;;;;0.28;0.28;;;;;;;22.11;39.66;99450.22;5030135;28;20063;-80
2022/05/05 10:34:55;;;;;;;0.20;0.20;;;;;;;22.13;40.51;99446.00;5030100;28;20033;-80
2022/05/05 10:37:31;;;;;;;0.20;0.20;;;;;;;22.20;39.92;99451.69;5031747;28;20112;-82
2022/05/05 10:40:00;;;;;;;0.00;0.00;;;;;;;22.25;38.48;99452.56;5029587;28;20052;-81
2022/05/05 10:42:43;;;;;;;0.22;0.22;;;;;;;22.32;37.59;99450.03;5044950;28;20048;-82
2022/05/05 10:45:15;;;;;;;0.10;0.10;;;;;;;22.41;38.73;99460.84;5049745;28;20037;-82
2022/05/05 10:47:54;;;;;;;0.20;0.20;;;;;;;22.39;39.16;99453.78;5066622;28;20043;-82
2022/05/05 10:50:29;;;;;;;0.10;0.10;;;;;;;22.43;39.28;99455.84;5066717;28;20128;-82
2022/05/05 10:52:55;;;;;;;0.00;0.00;;;;;;;22.47;38.52;99454.00;5049583;28;20115;-82
2022/05/05 10:55:28;;;;;;;0.10;0.10;;;;;;;22.51;37.31;99458.41;5050002;28;20044;-80
2022/05/05 10:57:54;;;;;;;0.43;0.43;;;;;;;22.55;34.26;99464.75;5049454;28;20510;-82
2022/05/05 11:00:19;;;;;;;0.10;0.10;;;;;;;22.65;34.30;99447.09;5049757;28;20029;-80
2022/05/05 11:03:00;;;;;;;0.10;0.10;;;;;;;22.62;32.49;99461.44;5049640;28;20614;-82
2022/05/05 11:05:38;;;;;;;0.10;0.10;;;;;;;22.63;32.87;99457.59;5050901;28;20039;-81
2022/05/05 11:08:10;;;;;;;0.20;0.20;;;;;;;22.74;34.40;99455.16;5049494;28;20484;-81
2022/05/05 11:10:38;;;;;;;0.05;0.05;;;;;;;22.84;33.55;99459.31;5051031;28;20033;-80
2022/05/05 11:13:04;;;;;;;0.77;0.55;;;;;;;22.79;35.59;99459.53;5050609;28;20035;-81
2022/05/05 11:21:32;;;;;;;0.38;0.38;;;;;;;22.67;35.48;99460.41;5050573;28;20071;-81
2022/05/05 11:23:59;;;;;;;0.43;0.43;;;;;;;22.60;35.64;99465.66;5049379;28;20045;-81
2022/05/05 11:26:25;;;;;;;0.60;0.60;;;;;;;22.54;35.87;99465.91;5049360;28;20029;-81
2022/05/05 11:28:51;;;;;;;1.00;0.90;;;;;;;22.55;36.74;99467.47;5050515;28;20454;-81
2022/05/05 11:31:19;;;;;;;0.08;0.08;;;;;;;22.57;36.79;99463.63;5049453;28;20032;-81
2022/05/05 11:33:58;;;;;;;0.10;0.10;;;;;;;22.52;38.00;99473.63;5049263;28;20029;-81
2022/05/05 11:36:31;;;;;;;0.32;0.32;;;;;;;22.52;38.09;99468.19;5050628;28;20040;-81
2022/05/05 11:38:57;;;;;;;0.08;0.08;;;;;;;22.59;38.91;99462.13;5050312;28;20017;-82
2022/05/05 11:41:23;;;;;;;0.00;0.00;;;;;;;22.52;37.71;99454.56;5045653;28;20045;-80
2022/05/05 11:46:36;;;;;;;0.57;0.57;;;;;;;22.56;38.55;99468.28;5034867;28;20040;-81
2022/05/05 11:49:02;;;;;;;0.13;0.13;;;;;;;22.54;38.89;99459.66;5034888;28;20104;-82
2022/05/05 11:51:32;;;;;;;0.20;0.20;;;;;;;22.50;37.45;99458.75;5034906;28;20037;-82
2022/05/05 11:54:04;;;;;;;0.17;0.15;;;;;;;22.54;38.88;99460.47;5034544;28;20428;-82
2022/05/05 11:56:30;;;;;;;0.68;0.68;;;;;;;22.49;38.57;99459.91;5034803;28;20474;-81
2022/05/05 12:02:04;;;;;;;0.20;0.20;;;;;;;22.28;39.39;99451.88;5034388;28;20056;-81
2022/05/05 12:04:30;;;;;;;0.30;0.30;;;;;;;22.19;40.83;99455.53;5033144;28;20124;-82
2022/05/05 12:06:58;;;;;;;0.40;0.40;;;;;;;22.19;38.58;99452.81;5034120;28;20037;-82
2022/05/05 12:09:23;;;;;;;0.10;0.10;;;;;;;22.18;39.47;99442.22;5033078;28;20501;-82
2022/05/05 12:11:48;;;;;;;0.17;0.17;;;;;;;22.28;40.27;99455.38;5032503;28;20091;-82
2022/05/05 12:14:14;;;;;;;0.45;0.45;;;;;;;22.23;38.07;99445.53;5032967;28;20021;-82